Time,TemperatureF,DewpointF,PressureIn,WindDirection,WindDirectionDegrees,WindSpeedMPH,WindSpeedGustMPH,Humidity,HourlyPrecipIn,Conditions,Clouds,dailyrainin,SoftwareType,DateUTC
2013-05-12 00:01:00,55.1,34.7,30.24,SE,135,0.4,0.4,46,0.00,,---,0.00,VWS V14.01,2013-05-12 06:01:00,
2013-05-12 00:06:00,54.9,34.5,30.25,SE,135,0.2,0.2,46,0.00,,---,0.00,VWS V14.01,2013-05-12 06:06:00,
2013-05-12 00:11:00,54.9,34.5,30.24,SE,135,0.0,0.0,46,0.00,,---,0.00,VWS V14.01,2013-05-12 06:11:00,
2013-05-12 00:16:00,54.9,34.5,30.25,SE,135,0.2,0.2,46,0.00,,---,0.00,VWS V14.01,2013-05-12 06:16:00,
2013-05-12 00:21:00,55.1,34.7,30.24,SE,135,0.9,0.9,46,0.00,,---,0.00,VWS V14.01,2013-05-12 06:21:00,
2013-05-12 00:26:00,55.4,34.4,30.25,ESE,112,1.1,1.1,45,0.00,,---,0.00,VWS V14.01,2013-05-12 06:26:00,
2013-05-12 00:31:00,55.8,34.2,30.24,ESE,112,0.9,0.9,44,0.00,,---,0.00,VWS V14.01,2013-05-12 06:31:00,
2013-05-12 00:36:00,56.0,33.8,30.24,ESE,112,1.8,1.8,43,0.00,,---,0.00,VWS V14.01,2013-05-12 06:36:00,
2013-05-12 00:41:00,56.0,33.8,30.24,SE,135,0.2,0.2,43,0.00,,---,0.00,VWS V14.01,2013-05-12 06:41:00,
2013-05-12 00:46:00,56.0,33.8,30.24,East,90,1.3,1.3,43,0.00,,---,0.00,VWS V14.01,2013-05-12 06:46:00,
2013-05-12 00:51:00,56.0,33.8,30.24,East,90,1.3,1.3,43,0.00,,---,0.00,VWS V14.01,2013-05-12 06:51:00,
2013-05-12 00:56:00,56.0,33.8,30.24,ESE,112,1.8,1.8,43,0.00,,---,0.00,VWS V14.01,2013-05-12 06:56:00,
2013-05-12 01:01:00,56.2,34.0,30.24,ESE,112,0.9,0.9,43,0.00,,---,0.00,VWS V14.01,2013-05-12 07:01:00,
2013-05-12 01:06:00,56.2,33.4,30.24,ESE,112,0.7,0.7,42,0.00,,---,0.00,VWS V14.01,2013-05-12 07:06:00,
2013-05-12 01:11:00,56.0,33.8,30.24,ESE,112,0.7,0.7,43,0.00,,---,0.00,VWS V14.01,2013-05-12 07:11:00,
2013-05-12 01:15:00,56.0,33.2,30.24,ESE,112,0.4,0.4,42,0.00,,---,0.00,VWS V14.01,2013-05-12 07:15:00,
2013-05-12 01:20:00,56.0,33.2,30.24,ESE,112,0.0,0.0,42,0.00,,---,0.00,VWS V14.01,2013-05-12 07:20:00,
2013-05-12 01:25:00,55.8,33.1,30.24,ESE,112,2.0,2.0,42,0.00,,---,0.00,VWS V14.01,2013-05-12 07:25:00,
2013-05-12 01:30:00,55.8,33.1,30.24,SE,135,1.1,1.1,42,0.00,,---,0.00,VWS V14.01,2013-05-12 07:30:00,
2013-05-12 01:35:00,55.8,32.5,30.24,ESE,112,0.4,0.4,41,0.00,,---,0.00,VWS V14.01,2013-05-12 07:35:00,
2013-05-12 01:40:00,55.8,32.5,30.24,ESE,112,1.6,1.6,41,0.00,,---,0.00,VWS V14.01,2013-05-12 07:40:00,
2013-05-12 01:45:00,55.8,32.5,30.24,SE,135,0.0,0.0,41,0.00,,---,0.00,VWS V14.01,2013-05-12 07:45:00,
2013-05-12 01:50:00,55.6,32.3,30.24,SSW,202,0.4,0.4,41,0.00,,---,0.00,VWS V14.01,2013-05-12 07:50:00,
2013-05-12 01:55:00,55.1,33.0,30.24,WSW,248,0.9,0.9,43,0.00,,---,0.00,VWS V14.01,2013-05-12 07:55:00,
2013-05-12 02:00:00,54.4,33.5,30.24,WSW,248,0.7,0.7,45,0.00,,---,0.00,VWS V14.01,2013-05-12 08:00:00,
2013-05-12 02:05:00,53.5,33.2,30.24,WSW,248,0.0,0.0,46,0.00,,---,0.00,VWS V14.01,2013-05-12 08:05:00,
2013-05-12 02:10:00,52.6,32.4,30.24,WSW,248,0.0,0.0,46,0.00,,---,0.00,VWS V14.01,2013-05-12 08:10:00,
2013-05-12 02:15:00,52.0,32.4,30.24,West,270,1.1,1.1,47,0.00,,---,0.00,VWS V14.01,2013-05-12 08:15:00,
2013-05-12 02:20:00,51.8,32.8,30.24,West,270,0.0,0.0,48,0.00,,---,0.00,VWS V14.01,2013-05-12 08:20:00,
2013-05-12 02:25:00,51.5,32.5,30.24,West,270,0.0,0.0,48,0.00,,---,0.00,VWS V14.01,2013-05-12 08:25:00,
2013-05-12 02:30:00,51.1,32.6,30.24,West,270,0.4,0.4,49,0.00,,---,0.00,VWS V14.01,2013-05-12 08:30:00,
2013-05-12 02:35:00,50.8,32.3,30.24,West,270,0.0,0.0,49,0.00,,---,0.00,VWS V14.01,2013-05-12 08:35:00,
2013-05-12 02:40:00,50.2,32.3,30.24,West,270,0.2,0.2,50,0.00,,---,0.00,VWS V14.01,2013-05-12 08:40:00,
2013-05-12 02:45:00,50.0,31.6,30.24,West,270,0.0,0.0,49,0.00,,---,0.00,VWS V14.01,2013-05-12 08:45:00,
2013-05-12 02:50:00,49.9,32.5,30.23,WNW,292,0.4,0.4,51,0.00,,---,0.00,VWS V14.01,2013-05-12 08:50:00,
2013-05-12 02:55:00,49.9,33.0,30.23,NE,45,1.1,1.1,52,0.00,,---,0.00,VWS V14.01,2013-05-12 08:55:00,
2013-05-12 03:00:00,50.0,33.1,30.23,NNE,22,1.1,1.1,52,0.00,,---,0.00,VWS V14.01,2013-05-12 09:00:00,
2013-05-12 03:05:00,50.6,33.2,30.23,NNE,22,0.9,0.9,51,0.00,,---,0.00,VWS V14.01,2013-05-12 09:05:00,
2013-05-12 03:10:00,50.6,33.2,30.23,NE,45,0.9,0.9,51,0.00,,---,0.00,VWS V14.01,2013-05-12 09:10:00,
2013-05-12 03:15:00,50.8,32.8,30.23,NE,45,0.4,0.4,50,0.00,,---,0.00,VWS V14.01,2013-05-12 09:15:00,
2013-05-12 03:20:00,50.6,32.7,30.23,NE,45,0.4,0.4,50,0.00,,---,0.00,VWS V14.01,2013-05-12 09:20:00,
2013-05-12 03:25:00,50.0,31.6,30.23,North,0,0.0,0.0,49,0.00,,---,0.00,VWS V14.01,2013-05-12 09:25:00,
2013-05-12 03:30:00,49.7,31.8,30.23,North,0,0.0,0.0,50,0.00,,---,0.00,VWS V14.01,2013-05-12 09:30:00,
2013-05-12 03:35:00,49.5,32.1,30.23,North,0,0.0,0.0,51,0.00,,---,0.00,VWS V14.01,2013-05-12 09:35:00,
2013-05-12 03:40:00,49.5,32.1,30.24,NE,45,0.0,0.0,51,0.00,,---,0.00,VWS V14.01,2013-05-12 09:40:00,
2013-05-12 03:45:00,49.3,31.5,30.24,NE,45,0.0,0.0,50,0.00,,---,0.00,VWS V14.01,2013-05-12 09:45:00,
2013-05-12 03:50:00,48.8,32.0,30.24,NE,45,0.0,0.0,52,0.00,,---,0.00,VWS V14.01,2013-05-12 09:50:00,
2013-05-12 03:55:00,48.6,31.3,30.24,NE,45,0.0,0.0,51,0.00,,---,0.00,VWS V14.01,2013-05-12 09:55:00,
2013-05-12 04:00:00,48.2,30.9,30.24,NE,45,0.0,0.0,51,0.00,,---,0.00,VWS V14.01,2013-05-12 10:00:00,
2013-05-12 04:05:00,47.9,31.6,30.24,NE,45,0.0,0.0,53,0.00,,---,0.00,VWS V14.01,2013-05-12 10:05:00,
2013-05-12 04:10:00,47.9,32.1,30.24,NE,45,0.0,0.0,54,0.00,,---,0.00,VWS V14.01,2013-05-12 10:10:00,
2013-05-12 04:15:00,47.7,31.9,30.24,NE,45,0.0,0.0,54,0.00,,---,0.00,VWS V14.01,2013-05-12 10:15:00,
2013-05-12 04:20:00,47.5,31.7,30.24,NE,45,0.0,0.0,54,0.00,,---,0.00,VWS V14.01,2013-05-12 10:20:00,
2013-05-12 04:25:00,47.0,30.8,30.24,NE,45,0.0,0.0,53,0.00,,---,0.00,VWS V14.01,2013-05-12 10:25:00,
2013-05-12 04:30:00,46.6,30.9,30.24,NE,45,0.0,0.0,54,0.00,,---,0.00,VWS V14.01,2013-05-12 10:30:00,
2013-05-12 04:35:00,46.3,31.0,30.23,NE,45,0.0,0.0,55,0.00,,---,0.00,VWS V14.01,2013-05-12 10:35:00,
2013-05-12 04:40:00,45.9,31.5,30.23,NE,45,0.0,0.0,57,0.00,,---,0.00,VWS V14.01,2013-05-12 10:40:00,
2013-05-12 04:45:00,45.9,31.5,30.24,NE,45,0.0,0.0,57,0.00,,---,0.00,VWS V14.01,2013-05-12 10:45:00,
2013-05-12 04:50:00,45.7,32.6,30.24,NE,45,0.0,0.2,60,0.00,,---,0.00,VWS V14.01,2013-05-12 10:50:00,
2013-05-12 04:55:00,45.7,34.2,30.23,ENE,68,0.4,0.4,64,0.00,,---,0.00,VWS V14.01,2013-05-12 10:55:00,
2013-05-12 05:00:00,46.1,34.2,30.23,ENE,68,0.4,0.4,63,0.00,,---,0.00,VWS V14.01,2013-05-12 11:00:00,
2013-05-12 05:05:00,46.1,33.8,30.23,ENE,68,0.0,0.0,62,0.00,,---,0.00,VWS V14.01,2013-05-12 11:05:00,
2013-05-12 05:10:00,45.7,33.0,30.23,ENE,68,0.0,0.0,61,0.00,,---,0.00,VWS V14.01,2013-05-12 11:10:00,
2013-05-12 05:15:00,45.4,33.6,30.23,ENE,68,0.0,0.0,63,0.00,,---,0.00,VWS V14.01,2013-05-12 11:15:00,
2013-05-12 05:20:00,45.2,32.6,30.23,ENE,68,0.0,0.0,61,0.00,,---,0.00,VWS V14.01,2013-05-12 11:20:00,
2013-05-12 05:25:00,45.0,32.4,30.23,ENE,68,0.0,0.0,61,0.00,,---,0.00,VWS V14.01,2013-05-12 11:25:00,
2013-05-12 05:30:00,44.8,33.0,30.23,ENE,68,0.4,0.4,63,0.00,,---,0.00,VWS V14.01,2013-05-12 11:30:00,
2013-05-12 05:35:00,44.8,33.0,30.23,NE,45,0.2,0.2,63,0.00,,---,0.00,VWS V14.01,2013-05-12 11:35:00,
2013-05-12 05:40:00,44.5,32.3,30.24,NE,45,0.0,0.0,62,0.00,,---,0.00,VWS V14.01,2013-05-12 11:40:00,
2013-05-12 05:45:00,44.5,32.3,30.24,NE,45,0.0,0.0,62,0.00,,---,0.00,VWS V14.01,2013-05-12 11:45:00,
2013-05-12 05:50:00,44.5,33.1,30.24,NE,45,0.2,0.2,64,0.00,,---,0.00,VWS V14.01,2013-05-12 11:50:00,
2013-05-12 05:55:00,44.6,33.2,30.24,NE,45,1.1,1.1,64,0.00,,---,0.00,VWS V14.01,2013-05-12 11:55:00,
2013-05-12 06:00:00,44.8,33.0,30.24,ENE,68,0.0,0.0,63,0.00,,---,0.00,VWS V14.01,2013-05-12 12:00:00,
2013-05-12 06:05:00,45.0,33.6,30.24,SSE,158,0.4,0.4,64,0.00,,---,0.00,VWS V14.01,2013-05-12 12:05:00,
2013-05-12 06:10:00,45.4,33.2,30.24,SSE,158,0.0,0.0,62,0.00,,---,0.00,VWS V14.01,2013-05-12 12:10:00,
2013-05-12 06:15:00,45.2,32.6,30.24,SSE,158,0.0,0.0,61,0.00,,---,0.00,VWS V14.01,2013-05-12 12:15:00,
2013-05-12 06:20:00,45.2,33.4,30.24,East,90,0.0,0.0,63,0.00,,---,0.00,VWS V14.01,2013-05-12 12:20:00,
2013-05-12 06:25:00,45.0,33.2,30.24,East,90,0.0,0.0,63,0.00,,---,0.00,VWS V14.01,2013-05-12 12:25:00,
2013-05-12 06:30:00,45.0,33.6,30.25,East,90,0.2,0.2,64,0.00,,---,0.00,VWS V14.01,2013-05-12 12:30:00,
2013-05-12 06:35:00,44.8,32.6,30.25,East,90,0.0,0.0,62,0.00,,---,0.00,VWS V14.01,2013-05-12 12:35:00,
2013-05-12 06:40:00,45.9,34.0,30.25,East,90,0.4,0.4,63,0.00,,---,0.00,VWS V14.01,2013-05-12 12:40:00,
2013-05-12 06:45:00,47.2,34.9,30.25,East,90,0.0,0.0,62,0.00,,---,0.00,VWS V14.01,2013-05-12 12:45:00,
2013-05-12 06:50:00,49.5,35.3,30.25,East,90,0.0,0.0,58,0.00,,---,0.00,VWS V14.01,2013-05-12 12:50:00,
2013-05-12 06:55:00,50.2,35.1,30.25,ENE,68,0.2,0.2,56,0.00,,---,0.00,VWS V14.01,2013-05-12 12:55:00,
2013-05-12 07:00:00,50.9,35.3,30.25,NE,45,0.4,0.4,55,0.00,,---,0.00,VWS V14.01,2013-05-12 13:00:00,
2013-05-12 07:05:00,52.2,36.1,30.25,NE,45,0.0,0.0,54,0.00,,---,0.00,VWS V14.01,2013-05-12 13:05:00,
2013-05-12 07:10:00,53.5,35.8,30.25,NE,45,0.4,0.4,51,0.00,,---,0.00,VWS V14.01,2013-05-12 13:10:00,
2013-05-12 07:15:00,54.4,36.2,30.25,ENE,68,0.0,0.0,50,0.00,,---,0.00,VWS V14.01,2013-05-12 13:15:00,
2013-05-12 07:20:00,55.8,36.4,30.25,ENE,68,0.4,0.4,48,0.00,,---,0.00,VWS V14.01,2013-05-12 13:20:00,
2013-05-12 07:25:00,57.1,36.5,30.25,ENE,68,0.2,0.2,46,0.00,,---,0.00,VWS V14.01,2013-05-12 13:25:00,
2013-05-12 07:30:00,59.0,39.4,30.25,ENE,68,0.0,0.0,48,0.00,,---,0.00,VWS V14.01,2013-05-12 13:30:00,
2013-05-12 07:35:00,58.7,36.9,30.25,SW,225,0.7,0.7,44,0.00,,---,0.00,VWS V14.01,2013-05-12 13:35:00,
2013-05-12 07:40:00,57.4,35.7,30.25,SW,225,1.1,1.1,44,0.00,,---,0.00,VWS V14.01,2013-05-12 13:40:00,
2013-05-12 07:45:00,57.1,36.5,30.25,SSW,202,0.9,0.9,46,0.00,,---,0.00,VWS V14.01,2013-05-12 13:45:00,
2013-05-12 07:50:00,57.2,36.1,30.25,WSW,248,0.4,0.4,45,0.00,,---,0.00,VWS V14.01,2013-05-12 13:50:00,
2013-05-12 07:55:00,58.3,36.5,30.25,SW,225,0.9,0.9,44,0.00,,---,0.00,VWS V14.01,2013-05-12 13:55:00,
2013-05-12 08:00:00,59.9,37.4,30.25,WSW,248,0.0,0.0,43,0.00,,---,0.00,VWS V14.01,2013-05-12 14:00:00,
2013-05-12 08:05:00,62.1,38.1,30.25,SW,225,0.4,0.4,41,0.00,,---,0.00,VWS V14.01,2013-05-12 14:05:00,
2013-05-12 08:10:00,61.2,37.3,30.25,SW,225,0.4,0.4,41,0.00,,---,0.00,VWS V14.01,2013-05-12 14:10:00,
2013-05-12 08:15:00,60.5,36.7,30.25,SW,225,0.2,0.2,41,0.00,,---,0.00,VWS V14.01,2013-05-12 14:15:00,
2013-05-12 08:20:00,60.8,37.0,30.25,WSW,248,1.1,1.1,41,0.00,,---,0.00,VWS V14.01,2013-05-12 14:20:00,
2013-05-12 08:25:00,62.3,37.7,30.25,SW,225,0.4,0.4,40,0.00,,---,0.00,VWS V14.01,2013-05-12 14:25:00,
2013-05-12 08:30:00,62.5,37.2,30.25,WNW,292,0.4,1.1,39,0.00,,---,0.00,VWS V14.01,2013-05-12 14:30:00,
2013-05-12 08:35:00,63.5,36.8,30.25,WSW,248,2.2,2.2,37,0.00,,---,0.00,VWS V14.01,2013-05-12 14:35:00,
2013-05-12 08:40:00,64.4,36.2,30.25,NW,315,1.8,1.8,35,0.00,,---,0.00,VWS V14.01,2013-05-12 14:40:00,
2013-05-12 08:45:00,64.8,35.8,30.25,West,270,0.9,0.9,34,0.00,,---,0.00,VWS V14.01,2013-05-12 14:45:00,
2013-05-12 08:50:00,65.2,35.4,30.25,West,270,1.6,1.6,33,0.00,,---,0.00,VWS V14.01,2013-05-12 14:50:00,
2013-05-12 08:55:00,65.3,36.2,30.25,WSW,248,0.7,0.7,34,0.00,,---,0.00,VWS V14.01,2013-05-12 14:55:00,
2013-05-12 09:00:00,66.1,36.2,30.24,West,270,2.7,2.7,33,0.00,,---,0.00,VWS V14.01,2013-05-12 15:00:00,
2013-05-12 09:05:00,65.9,36.0,30.24,WNW,292,1.8,1.8,33,0.00,,---,0.00,VWS V14.01,2013-05-12 15:05:00,
2013-05-12 09:10:00,66.2,35.5,30.24,North,0,0.4,0.4,32,0.00,,---,0.00,VWS V14.01,2013-05-12 15:10:00,
2013-05-12 09:15:00,66.6,35.8,30.24,WNW,292,0.7,0.7,32,0.00,,---,0.00,VWS V14.01,2013-05-12 15:15:00,
2013-05-12 09:20:00,66.2,34.7,30.24,WSW,248,2.2,2.2,31,0.00,,---,0.00,VWS V14.01,2013-05-12 15:20:00,
2013-05-12 09:25:00,65.7,34.3,30.25,WNW,292,3.1,3.1,31,0.00,,---,0.00,VWS V14.01,2013-05-12 15:25:00,
2013-05-12 09:30:00,65.3,33.9,30.24,SSW,202,0.7,0.7,31,0.00,,---,0.00,VWS V14.01,2013-05-12 15:30:00,
2013-05-12 09:35:00,65.5,34.1,30.24,NW,315,1.1,1.1,31,0.00,,---,0.00,VWS V14.01,2013-05-12 15:35:00,
2013-05-12 09:40:00,65.3,33.9,30.24,SW,225,1.8,1.8,31,0.00,,---,0.00,VWS V14.01,2013-05-12 15:40:00,
2013-05-12 09:45:00,65.0,33.7,30.24,NNE,22,2.5,2.5,31,0.00,,---,0.00,VWS V14.01,2013-05-12 15:45:00,
2013-05-12 09:50:00,65.9,34.4,30.24,West,270,2.9,2.9,31,0.00,,---,0.00,VWS V14.01,2013-05-12 15:50:00,
2013-05-12 09:55:00,66.4,34.0,30.24,North,0,0.4,0.4,30,0.00,,---,0.00,VWS V14.01,2013-05-12 15:55:00,
2013-05-12 10:00:00,66.2,33.9,30.24,SW,225,2.5,2.5,30,0.00,,---,0.00,VWS V14.01,2013-05-12 16:00:00,
2013-05-12 10:05:00,66.2,34.7,30.24,WNW,292,0.9,0.9,31,0.00,,---,0.00,VWS V14.01,2013-05-12 16:05:00,
2013-05-12 10:10:00,66.8,34.4,30.24,NW,315,0.0,0.0,30,0.00,,---,0.00,VWS V14.01,2013-05-12 16:10:00,
2013-05-12 10:15:00,66.1,33.8,30.24,SSW,202,2.0,2.0,30,0.00,,---,0.00,VWS V14.01,2013-05-12 16:15:00,
2013-05-12 10:20:00,65.5,33.3,30.24,SSW,202,2.2,2.2,30,0.00,,---,0.00,VWS V14.01,2013-05-12 16:20:00,
2013-05-12 10:25:00,65.5,33.3,30.24,West,270,4.3,4.3,30,0.00,,---,0.00,VWS V14.01,2013-05-12 16:25:00,
2013-05-12 10:30:00,65.7,33.5,30.24,WSW,248,3.6,3.6,30,0.00,,---,0.00,VWS V14.01,2013-05-12 16:30:00,
2013-05-12 10:35:00,65.5,33.3,30.24,NNW,338,0.4,0.4,30,0.00,,---,0.00,VWS V14.01,2013-05-12 16:35:00,
2013-05-12 10:40:00,66.6,34.2,30.23,WSW,248,4.7,4.7,30,0.00,,---,0.00,VWS V14.01,2013-05-12 16:40:00,
2013-05-12 10:45:00,65.2,33.0,30.23,WSW,248,1.1,1.1,30,0.00,,---,0.00,VWS V14.01,2013-05-12 16:45:00,
2013-05-12 10:50:00,65.9,33.6,30.23,SSW,202,2.7,2.7,30,0.00,,---,0.00,VWS V14.01,2013-05-12 16:50:00,
2013-05-12 10:55:00,65.3,33.1,30.23,WSW,248,1.3,1.3,30,0.01,,---,0.01,VWS V14.01,2013-05-12 16:55:00,
2013-05-12 11:00:00,66.6,34.2,30.23,ESE,112,0.2,0.2,30,0.01,,---,0.01,VWS V14.01,2013-05-12 17:00:00,
2013-05-12 11:05:00,68.2,33.9,30.23,NW,315,3.4,3.4,28,0.01,,---,0.01,VWS V14.01,2013-05-12 17:05:00,
2013-05-12 11:10:00,67.9,33.6,30.23,WSW,248,1.1,1.1,28,0.01,,---,0.01,VWS V14.01,2013-05-12 17:10:00,
2013-05-12 11:15:00,67.0,33.7,30.23,SW,225,1.6,1.6,29,0.01,,---,0.01,VWS V14.01,2013-05-12 17:15:00,
2013-05-12 11:20:00,67.3,33.1,30.23,SW,225,2.9,2.9,28,0.01,,---,0.01,VWS V14.01,2013-05-12 17:20:00,
2013-05-12 11:25:00,67.3,31.3,30.23,North,0,4.0,4.0,26,0.01,,---,0.01,VWS V14.01,2013-05-12 17:25:00,
2013-05-12 11:30:00,68.0,31.9,30.22,WSW,248,2.2,2.2,26,0.01,,---,0.01,VWS V14.01,2013-05-12 17:30:00,
2013-05-12 11:34:00,67.7,31.6,30.22,SSW,202,1.8,1.8,26,0.01,,---,0.01,VWS V14.01,2013-05-12 17:34:00,
2013-05-12 11:39:00,68.0,33.7,30.22,NW,315,0.4,0.4,28,0.01,,---,0.01,VWS V14.01,2013-05-12 17:39:00,
2013-05-12 11:44:00,69.1,32.8,30.22,SW,225,1.8,1.8,26,0.01,,---,0.01,VWS V14.01,2013-05-12 17:44:00,
2013-05-12 11:49:00,69.5,33.1,30.21,SW,225,1.3,1.3,26,0.01,,---,0.01,VWS V14.01,2013-05-12 17:49:00,
2013-05-12 11:54:00,68.9,32.6,30.21,West,270,1.6,1.6,26,0.00,,---,0.01,VWS V14.01,2013-05-12 17:54:00,
2013-05-12 11:59:00,69.5,32.2,30.20,SW,225,1.8,1.8,25,0.00,,---,0.01,VWS V14.01,2013-05-12 17:59:00,
2013-05-12 12:04:00,70.2,33.7,30.20,West,270,2.9,2.9,26,0.00,,---,0.01,VWS V14.01,2013-05-12 18:04:00,
2013-05-12 12:09:00,70.7,33.2,30.20,WSW,248,4.7,4.7,25,0.00,,---,0.01,VWS V14.01,2013-05-12 18:09:00,
2013-05-12 12:14:00,70.2,32.8,30.20,NW,315,3.8,3.8,25,0.00,,---,0.01,VWS V14.01,2013-05-12 18:14:00,
2013-05-12 12:19:00,70.2,32.8,30.19,NW,315,4.0,4.0,25,0.00,,---,0.01,VWS V14.01,2013-05-12 18:19:00,
2013-05-12 12:24:00,70.4,32.9,30.19,West,270,4.9,4.9,25,0.00,,---,0.01,VWS V14.01,2013-05-12 18:24:00,
2013-05-12 12:29:00,70.9,32.3,30.19,East,90,3.4,3.4,24,0.00,,---,0.01,VWS V14.01,2013-05-12 18:29:00,
2013-05-12 12:34:00,71.5,32.8,30.19,SSW,202,0.7,0.7,24,0.00,,---,0.01,VWS V14.01,2013-05-12 18:34:00,
2013-05-12 12:39:00,72.2,33.4,30.18,WSW,248,3.4,3.4,24,0.00,,---,0.01,VWS V14.01,2013-05-12 18:39:00,
2013-05-12 12:44:00,72.2,32.4,30.18,NNE,22,4.0,4.0,23,0.00,,---,0.01,VWS V14.01,2013-05-12 18:44:00,
2013-05-12 12:49:00,72.2,32.4,30.18,WSW,248,4.0,4.0,23,0.00,,---,0.01,VWS V14.01,2013-05-12 18:49:00,
2013-05-12 12:54:00,72.4,33.6,30.18,NW,315,1.1,1.1,24,0.00,,---,0.01,VWS V14.01,2013-05-12 18:54:00,
2013-05-12 12:59:00,72.4,32.5,30.17,WSW,248,1.1,1.1,23,0.00,,---,0.01,VWS V14.01,2013-05-12 18:59:00,
2013-05-12 13:04:00,71.5,31.8,30.17,North,0,4.7,4.7,23,0.00,,---,0.01,VWS V14.01,2013-05-12 19:04:00,
2013-05-12 13:09:00,72.0,32.2,30.17,North,0,2.5,2.5,23,0.00,,---,0.01,VWS V14.01,2013-05-12 19:09:00,
2013-05-12 13:14:00,72.0,32.2,30.17,NNW,338,2.9,2.9,23,0.00,,---,0.01,VWS V14.01,2013-05-12 19:14:00,
2013-05-12 13:19:00,72.0,32.2,30.17,West,270,1.1,1.1,23,0.00,,---,0.01,VWS V14.01,2013-05-12 19:19:00,
2013-05-12 13:24:00,72.9,31.9,30.16,NE,45,1.8,1.8,22,0.00,,---,0.01,VWS V14.01,2013-05-12 19:24:00,
2013-05-12 13:29:00,73.6,33.5,30.16,SSE,158,0.4,0.4,23,0.00,,---,0.01,VWS V14.01,2013-05-12 19:29:00,
2013-05-12 13:34:00,74.3,33.0,30.15,West,270,1.1,1.1,22,0.00,,---,0.01,VWS V14.01,2013-05-12 19:34:00,
2013-05-12 13:39:00,74.7,33.4,30.16,WSW,248,4.0,4.0,22,0.00,,---,0.01,VWS V14.01,2013-05-12 19:39:00,
2013-05-12 13:44:00,74.0,33.9,30.15,WSW,248,1.3,1.3,23,0.00,,---,0.01,VWS V14.01,2013-05-12 19:44:00,
2013-05-12 13:49:00,73.4,32.3,30.15,NW,315,1.1,1.1,22,0.00,,---,0.01,VWS V14.01,2013-05-12 19:49:00,
2013-05-12 13:54:00,73.6,32.5,30.15,West,270,4.9,4.9,22,0.00,,---,0.01,VWS V14.01,2013-05-12 19:54:00,
2013-05-12 13:59:00,74.2,31.8,30.15,West,270,6.3,6.3,21,0.00,,---,0.01,VWS V14.01,2013-05-12 19:59:00,
2013-05-12 14:04:00,74.0,31.6,30.15,WNW,292,4.7,4.7,21,0.00,,---,0.01,VWS V14.01,2013-05-12 20:04:00,
2013-05-12 14:09:00,74.5,32.0,30.15,NNW,338,3.4,3.4,21,0.00,,---,0.01,VWS V14.01,2013-05-12 20:09:00,
2013-05-12 14:14:00,74.9,32.4,30.14,NNW,338,4.0,4.0,21,0.00,,---,0.01,VWS V14.01,2013-05-12 20:14:00,
2013-05-12 14:19:00,75.2,31.4,30.14,WNW,292,3.4,3.4,20,0.00,,---,0.01,VWS V14.01,2013-05-12 20:19:00,
2013-05-12 14:24:00,75.4,32.8,30.14,WSW,248,2.0,2.0,21,0.00,,---,0.01,VWS V14.01,2013-05-12 20:24:00,
2013-05-12 14:29:00,75.6,30.5,30.14,SW,225,1.3,1.3,19,0.00,,---,0.01,VWS V14.01,2013-05-12 20:29:00,
2013-05-12 14:34:00,75.8,30.6,30.14,West,270,6.5,6.5,19,0.00,,---,0.01,VWS V14.01,2013-05-12 20:34:00,
2013-05-12 14:39:00,74.9,29.9,30.14,SW,225,0.2,0.2,19,0.00,,---,0.01,VWS V14.01,2013-05-12 20:39:00,
2013-05-12 14:44:00,75.4,30.3,30.14,SW,225,1.8,2.5,19,0.00,,---,0.01,VWS V14.01,2013-05-12 20:44:00,
2013-05-12 14:49:00,76.0,29.5,30.13,North,0,3.4,3.4,18,0.00,,---,0.01,VWS V14.01,2013-05-12 20:49:00,
2013-05-12 14:54:00,76.7,30.0,30.13,WSW,248,2.5,2.5,18,0.00,,---,0.01,VWS V14.01,2013-05-12 20:54:00,
2013-05-12 14:59:00,76.7,30.0,30.13,SSW,202,2.5,2.5,18,0.00,,---,0.01,VWS V14.01,2013-05-12 20:59:00,
2013-05-12 15:04:00,76.0,28.1,30.12,SW,225,5.4,5.4,17,0.00,,---,0.01,VWS V14.01,2013-05-12 21:04:00,
2013-05-12 15:09:00,74.9,28.6,30.12,SE,135,1.3,1.3,18,0.00,,---,0.01,VWS V14.01,2013-05-12 21:09:00,
2013-05-12 15:14:00,76.1,29.6,30.12,NNE,22,0.4,0.4,18,0.00,,---,0.01,VWS V14.01,2013-05-12 21:14:00,
2013-05-12 15:19:00,78.5,28.6,30.11,West,270,2.5,2.5,16,0.00,,---,0.01,VWS V14.01,2013-05-12 21:19:00,
2013-05-12 15:24:00,78.3,26.9,30.11,NNE,22,8.5,8.5,15,0.00,,---,0.01,VWS V14.01,2013-05-12 21:24:00,
2013-05-12 15:29:00,76.9,27.3,30.11,North,0,5.8,5.8,16,0.00,,---,0.01,VWS V14.01,2013-05-12 21:29:00,
2013-05-12 15:34:00,77.2,27.6,30.11,NW,315,7.4,7.4,16,0.00,,---,0.01,VWS V14.01,2013-05-12 21:34:00,
2013-05-12 15:39:00,77.6,27.9,30.11,West,270,3.6,3.6,16,0.00,,---,0.01,VWS V14.01,2013-05-12 21:39:00,
2013-05-12 15:44:00,78.1,29.8,30.11,WSW,248,3.1,3.1,17,0.00,,---,0.01,VWS V14.01,2013-05-12 21:44:00,
2013-05-12 15:49:00,78.7,28.8,30.11,SW,225,2.7,2.7,16,0.00,,---,0.01,VWS V14.01,2013-05-12 21:49:00,
2013-05-12 15:54:00,78.5,28.6,30.10,NNW,338,6.0,6.0,16,0.00,,---,0.01,VWS V14.01,2013-05-12 21:54:00,
2013-05-12 15:59:00,78.1,28.3,30.10,West,270,6.3,6.3,16,0.00,,---,0.01,VWS V14.01,2013-05-12 21:59:00,
2013-05-12 16:04:00,79.6,27.9,30.10,WNW,292,4.0,4.0,15,0.00,,---,0.01,VWS V14.01,2013-05-12 22:04:00,
2013-05-12 16:09:00,80.5,28.6,30.10,NNW,338,4.9,4.9,15,0.00,,---,0.01,VWS V14.01,2013-05-12 22:09:00,
2013-05-12 16:14:00,79.9,28.2,30.10,NW,315,1.8,1.8,15,0.00,,---,0.01,VWS V14.01,2013-05-12 22:14:00,
2013-05-12 16:19:00,79.7,24.5,30.10,WSW,248,4.0,4.0,13,0.00,,---,0.01,VWS V14.01,2013-05-12 22:19:00,
2013-05-12 16:24:00,79.2,27.6,30.09,SW,225,0.4,1.6,15,0.00,,---,0.01,VWS V14.01,2013-05-12 22:24:00,
2013-05-12 16:29:00,78.7,23.8,30.09,SE,135,1.8,1.8,13,0.00,,---,0.01,VWS V14.01,2013-05-12 22:29:00,
2013-05-12 16:34:00,77.0,25.9,30.09,SE,135,0.0,0.0,15,0.00,,---,0.01,VWS V14.01,2013-05-12 22:34:00,
2013-05-12 16:39:00,76.7,25.6,30.10,South,180,0.9,0.9,15,0.00,,---,0.01,VWS V14.01,2013-05-12 22:39:00,
2013-05-12 16:44:00,76.7,28.6,30.09,SSW,202,0.9,0.9,17,0.00,,---,0.01,VWS V14.01,2013-05-12 22:44:00,
2013-05-12 16:49:00,76.7,27.2,30.09,SE,135,2.2,2.2,16,0.00,,---,0.01,VWS V14.01,2013-05-12 22:49:00,
2013-05-12 16:54:00,75.2,30.1,30.10,ESE,112,4.7,4.7,19,0.00,,---,0.01,VWS V14.01,2013-05-12 22:54:00,
2013-05-12 16:59:00,73.8,31.5,30.10,ESE,112,4.7,4.7,21,0.00,,---,0.01,VWS V14.01,2013-05-12 22:59:00,
2013-05-12 17:04:00,73.1,32.0,30.09,SE,135,5.8,5.8,22,0.00,,---,0.01,VWS V14.01,2013-05-12 23:04:00,
2013-05-12 17:09:00,72.7,31.7,30.10,SSE,158,1.3,1.3,22,0.00,,---,0.01,VWS V14.01,2013-05-12 23:09:00,
2013-05-12 17:14:00,72.5,31.5,30.10,SE,135,2.0,2.0,22,0.00,,---,0.01,VWS V14.01,2013-05-12 23:14:00,
2013-05-12 17:19:00,72.5,31.5,30.10,SSE,158,1.1,1.1,22,0.00,,---,0.01,VWS V14.01,2013-05-12 23:19:00,
2013-05-12 17:24:00,72.0,34.3,30.10,NE,45,18.3,18.3,25,0.00,,---,0.00,VWS V14.01,2013-05-12 23:24:00,
2013-05-12 17:29:00,71.1,32.5,30.10,ESE,112,3.4,3.4,24,0.00,,---,0.01,VWS V14.01,2013-05-12 23:29:00,
2013-05-12 17:34:00,71.3,31.6,30.10,SSW,202,0.0,0.0,23,0.00,,---,0.01,VWS V14.01,2013-05-12 23:34:00,
2013-05-12 17:39:00,71.6,31.9,30.10,SE,135,2.7,2.7,23,0.00,,---,0.01,VWS V14.01,2013-05-12 23:39:00,
2013-05-12 17:44:00,71.6,34.9,30.10,SE,135,0.7,0.7,26,0.00,,---,0.01,VWS V14.01,2013-05-12 23:44:00,
2013-05-12 17:49:00,71.6,31.9,30.10,SW,225,2.2,2.2,23,0.00,,---,0.01,VWS V14.01,2013-05-12 23:49:00,
2013-05-12 17:54:00,72.2,31.3,30.10,West,270,1.1,1.1,22,0.00,,---,0.01,VWS V14.01,2013-05-12 23:54:00,
2013-05-12 17:59:00,73.4,32.3,30.09,WSW,248,1.6,1.6,22,0.00,,---,0.01,VWS V14.01,2013-05-12 23:59:00,
2013-05-12 18:04:00,74.5,30.8,30.09,WNW,292,3.1,3.1,20,0.00,,---,0.01,VWS V14.01,2013-05-13 00:04:00,
2013-05-12 18:09:00,73.6,31.3,30.09,ENE,68,0.9,0.9,21,0.00,,---,0.01,VWS V14.01,2013-05-13 00:09:00,
2013-05-12 18:14:00,72.7,30.5,30.09,NNE,22,0.0,0.0,21,0.00,,---,0.01,VWS V14.01,2013-05-13 00:14:00,
2013-05-12 18:19:00,72.9,30.7,30.09,NE,45,0.0,0.0,21,0.00,,---,0.01,VWS V14.01,2013-05-13 00:19:00,
2013-05-12 18:24:00,74.5,29.6,30.09,SSE,158,1.1,1.1,19,0.00,,---,0.01,VWS V14.01,2013-05-13 00:24:00,
2013-05-12 18:29:00,75.1,30.1,30.09,SSW,202,3.4,3.4,19,0.00,,---,0.01,VWS V14.01,2013-05-13 00:29:00,
2013-05-12 18:34:00,75.4,30.3,30.09,SW,225,2.0,2.0,19,0.00,,---,0.01,VWS V14.01,2013-05-13 00:34:00,
2013-05-12 18:39:00,75.8,30.6,30.09,SW,225,2.0,2.0,19,0.00,,---,0.01,VWS V14.01,2013-05-13 00:39:00,
2013-05-12 18:44:00,76.5,31.2,30.09,SW,225,1.6,1.6,19,0.00,,---,0.01,VWS V14.01,2013-05-13 00:44:00,
2013-05-12 18:49:00,76.9,30.2,30.09,WNW,292,1.1,1.1,18,0.00,,---,0.01,VWS V14.01,2013-05-13 00:49:00,
2013-05-12 18:54:00,76.7,31.4,30.09,North,0,0.0,0.0,19,0.00,,---,0.01,VWS V14.01,2013-05-13 00:54:00,
2013-05-12 18:59:00,76.9,30.2,30.09,North,0,0.4,0.4,18,0.00,,---,0.01,VWS V14.01,2013-05-13 00:59:00,
2013-05-12 19:04:00,76.7,31.4,30.09,ENE,68,0.0,0.0,19,0.00,,---,0.01,VWS V14.01,2013-05-13 01:04:00,
2013-05-12 19:09:00,75.8,30.6,30.09,South,180,0.7,0.7,19,0.00,,---,0.01,VWS V14.01,2013-05-13 01:09:00,
2013-05-12 19:14:00,74.7,32.2,30.09,South,180,0.7,0.7,21,0.00,,---,0.01,VWS V14.01,2013-05-13 01:14:00,
2013-05-12 19:19:00,74.2,31.8,30.09,South,180,1.8,1.8,21,0.00,,---,0.01,VWS V14.01,2013-05-13 01:19:00,
2013-05-12 19:24:00,73.4,31.1,30.09,SSE,158,1.1,1.1,21,0.00,,---,0.01,VWS V14.01,2013-05-13 01:24:00,
2013-05-12 19:29:00,73.4,31.1,30.09,South,180,0.7,0.7,21,0.00,,---,0.01,VWS V14.01,2013-05-13 01:29:00,
2013-05-12 19:34:00,73.4,31.1,30.09,South,180,0.0,0.0,21,0.00,,---,0.01,VWS V14.01,2013-05-13 01:34:00,
2013-05-12 19:39:00,73.3,31.0,30.09,SE,135,0.7,0.7,21,0.00,,---,0.01,VWS V14.01,2013-05-13 01:39:00,
2013-05-12 19:44:00,72.5,31.5,30.09,SE,135,0.0,0.0,22,0.00,,---,0.01,VWS V14.01,2013-05-13 01:44:00,
2013-05-12 19:49:00,71.8,30.9,30.09,SE,135,0.0,0.0,22,0.00,,---,0.01,VWS V14.01,2013-05-13 01:49:00,
2013-05-12 19:54:00,71.3,30.5,30.10,SE,135,0.0,0.0,22,0.00,,---,0.01,VWS V14.01,2013-05-13 01:54:00,
2013-05-12 19:59:00,70.7,31.1,30.10,SSE,158,0.4,0.4,23,0.00,,---,0.01,VWS V14.01,2013-05-13 01:59:00,
2013-05-12 20:04:00,70.6,31.0,30.10,SSE,158,0.0,0.0,23,0.00,,---,0.01,VWS V14.01,2013-05-13 02:04:00,
2013-05-12 20:09:00,70.0,30.5,30.10,SSE,158,0.0,0.0,23,0.00,,---,0.01,VWS V14.01,2013-05-13 02:09:00,
2013-05-12 20:14:00,69.5,31.2,30.10,SE,135,0.2,0.2,24,0.00,,---,0.01,VWS V14.01,2013-05-13 02:14:00,
2013-05-12 20:19:00,69.1,30.8,30.11,SE,135,0.4,0.4,24,0.00,,---,0.01,VWS V14.01,2013-05-13 02:19:00,
2013-05-12 20:24:00,68.8,31.6,30.11,SE,135,0.0,0.0,25,0.00,,---,0.01,VWS V14.01,2013-05-13 02:24:00,
2013-05-12 20:29:00,68.6,31.4,30.11,SE,135,0.0,0.0,25,0.00,,---,0.01,VWS V14.01,2013-05-13 02:29:00,
2013-05-12 20:34:00,68.0,30.9,30.11,SE,135,0.0,0.0,25,0.00,,---,0.01,VWS V14.01,2013-05-13 02:34:00,
2013-05-12 20:39:00,67.5,30.5,30.11,SE,135,0.0,0.0,25,0.00,,---,0.01,VWS V14.01,2013-05-13 02:39:00,
2013-05-12 20:44:00,67.0,32.0,30.11,East,90,0.4,0.4,27,0.00,,---,0.01,VWS V14.01,2013-05-13 02:44:00,
2013-05-12 20:48:00,66.8,30.8,30.11,East,90,0.2,0.2,26,0.00,,---,0.01,VWS V14.01,2013-05-13 02:48:00,
2013-05-12 20:53:00,67.0,31.0,30.11,ESE,112,0.0,0.0,26,0.00,,---,0.01,VWS V14.01,2013-05-13 02:53:00,
2013-05-12 20:58:00,66.8,30.8,30.11,East,90,0.2,0.2,26,0.00,,---,0.01,VWS V14.01,2013-05-13 02:58:00,
2013-05-12 21:03:00,66.6,31.6,30.11,East,90,0.4,0.4,27,0.00,,---,0.01,VWS V14.01,2013-05-13 03:03:00,
2013-05-12 21:08:00,66.2,32.2,30.11,East,90,0.4,0.4,28,0.00,,---,0.01,VWS V14.01,2013-05-13 03:08:00,
2013-05-12 21:13:00,65.9,31.9,30.12,East,90,0.4,0.4,28,0.00,,---,0.01,VWS V14.01,2013-05-13 03:13:00,
2013-05-12 21:18:00,65.7,31.7,30.12,ENE,68,0.4,0.4,28,0.00,,---,0.01,VWS V14.01,2013-05-13 03:18:00,
2013-05-12 21:23:00,65.3,32.3,30.12,ENE,68,0.7,0.7,29,0.00,,---,0.01,VWS V14.01,2013-05-13 03:23:00,
2013-05-12 21:28:00,65.0,32.0,30.12,ENE,68,0.7,0.7,29,0.00,,---,0.01,VWS V14.01,2013-05-13 03:28:00,
2013-05-12 21:33:00,64.6,31.6,30.12,ENE,68,0.7,0.7,29,0.00,,---,0.01,VWS V14.01,2013-05-13 03:33:00,
2013-05-12 21:38:00,64.4,31.5,30.12,ENE,68,0.2,0.2,29,0.00,,---,0.01,VWS V14.01,2013-05-13 03:38:00,
2013-05-12 21:43:00,64.1,31.2,30.13,ENE,68,0.0,0.0,29,0.00,,---,0.01,VWS V14.01,2013-05-13 03:43:00,
2013-05-12 21:48:00,63.7,30.0,30.13,ENE,68,0.0,0.0,28,0.00,,---,0.01,VWS V14.01,2013-05-13 03:48:00,
2013-05-12 21:53:00,63.5,30.7,30.13,ENE,68,0.4,0.4,29,0.00,,---,0.01,VWS V14.01,2013-05-13 03:53:00,
2013-05-12 21:58:00,63.5,30.7,30.13,ENE,68,0.9,0.9,29,0.00,,---,0.01,VWS V14.01,2013-05-13 03:58:00,
2013-05-12 22:01:00,63.4,30.6,30.13,ENE,68,0.4,0.4,29,0.00,,---,0.01,VWS V14.01,2013-05-13 04:01:00,
2013-05-12 22:06:00,63.4,30.6,30.13,ENE,68,0.4,0.4,29,0.00,,---,0.01,VWS V14.01,2013-05-13 04:06:00,
2013-05-12 22:11:00,63.0,31.1,30.14,ENE,68,0.7,0.7,30,0.00,,---,0.01,VWS V14.01,2013-05-13 04:11:00,
2013-05-12 22:16:00,62.8,30.1,30.13,ENE,68,0.0,0.0,29,0.00,,---,0.01,VWS V14.01,2013-05-13 04:16:00,
2013-05-12 22:21:00,62.3,29.7,30.13,ENE,68,0.0,0.0,29,0.00,,---,0.01,VWS V14.01,2013-05-13 04:21:00,
2013-05-12 22:26:00,61.6,29.9,30.13,ENE,68,0.0,0.0,30,0.00,,---,0.01,VWS V14.01,2013-05-13 04:26:00,
2013-05-12 22:31:00,61.6,30.7,30.13,ESE,112,0.4,0.4,31,0.00,,---,0.01,VWS V14.01,2013-05-13 04:31:00,
2013-05-12 22:36:00,61.9,31.0,30.13,SE,135,0.4,0.4,31,0.00,,---,0.01,VWS V14.01,2013-05-13 04:36:00,
2013-05-12 22:41:00,62.6,30.8,30.14,SE,135,1.3,1.3,30,0.00,,---,0.01,VWS V14.01,2013-05-13 04:41:00,
2013-05-12 22:46:00,63.9,29.3,30.13,SE,135,0.7,0.7,27,0.00,,---,0.01,VWS V14.01,2013-05-13 04:46:00,
2013-05-12 22:51:00,65.0,31.1,30.14,SE,135,0.4,0.4,28,0.00,,---,0.01,VWS V14.01,2013-05-13 04:51:00,
2013-05-12 22:56:00,65.2,31.3,30.14,SE,135,0.0,0.0,28,0.00,,---,0.01,VWS V14.01,2013-05-13 04:56:00,
2013-05-12 23:01:00,64.1,30.4,30.14,ENE,68,0.4,0.4,28,0.00,,---,0.01,VWS V14.01,2013-05-13 05:01:00,
2013-05-12 23:06:00,63.2,30.4,30.14,ENE,68,0.4,0.4,29,0.00,,---,0.01,VWS V14.01,2013-05-13 05:06:00,
2013-05-12 23:11:00,62.5,29.8,30.14,ENE,68,0.0,0.0,29,0.00,,---,0.01,VWS V14.01,2013-05-13 05:11:00,
2013-05-12 23:16:00,62.1,29.5,30.14,ENE,68,0.0,0.0,29,0.00,,---,0.01,VWS V14.01,2013-05-13 05:16:00,
2013-05-12 23:21:00,61.9,29.3,30.14,ESE,112,0.4,0.4,29,0.00,,---,0.01,VWS V14.01,2013-05-13 05:21:00,
2013-05-12 23:26:00,61.6,29.9,30.15,South,180,0.4,0.4,30,0.00,,---,0.01,VWS V14.01,2013-05-13 05:26:00,
2013-05-12 23:31:00,61.6,29.1,30.15,SSE,158,0.4,0.4,29,0.00,,---,0.01,VWS V14.01,2013-05-13 05:31:00,
2013-05-12 23:36:00,61.2,28.7,30.15,SE,135,0.0,0.0,29,0.00,,---,0.01,VWS V14.01,2013-05-13 05:36:00,
2013-05-12 23:41:00,60.8,29.2,30.15,SE,135,0.0,0.0,30,0.00,,---,0.01,VWS V14.01,2013-05-13 05:41:00,
2013-05-12 23:46:00,61.2,29.5,30.15,SSE,158,0.7,0.7,30,0.00,,---,0.01,VWS V14.01,2013-05-13 05:46:00,
2013-05-12 23:51:00,61.6,29.1,30.15,SE,135,0.4,0.4,29,0.00,,---,0.01,VWS V14.01,2013-05-13 05:51:00,
2013-05-12 23:56:00,61.9,28.5,30.15,SE,135,0.9,0.9,28,0.00,,---,0.01,VWS V14.01,2013-05-13 05:56:00,